sensor_id;sensor_type;location;lat;lon;timestamp;P1;durP1;ratioP1;P2;durP2;ratioP2
10653;SDS011;5375;51.250;6.776;2023-02-28T00:00:30;2.67;;;1.67;;
10653;SDS011;5375;51.250;6.776;2023-02-28T00:02:56;3.23;;;1.80;;
10653;SDS011;5375;51.250;6.776;2023-02-28T00:05:23;2.50;;;1.60;;
10653;SDS011;5375;51.250;6.776;2023-02-28T00:07:49;3.60;;;1.47;;
10653;SDS011;5375;51.250;6.776;2023-02-28T00:10:17;3.60;;;1.50;;
10653;SDS011;5375;51.250;6.776;2023-02-28T00:12:46;3.87;;;1.63;;
10653;SDS011;5375;51.250;6.776;2023-02-28T00:15:12;3.40;;;1.77;;
10653;SDS011;5375;51.250;6.776;2023-02-28T00:17:38;2.97;;;1.60;;
10653;SDS011;5375;51.250;6.776;2023-02-28T00:20:04;2.73;;;1.67;;
10653;SDS011;5375;51.250;6.776;2023-02-28T00:22:37;3.03;;;1.50;;
10653;SDS011;5375;51.250;6.776;2023-02-28T00:25:04;2.53;;;1.70;;
10653;SDS011;5375;51.250;6.776;2023-02-28T00:27:31;3.07;;;1.90;;
10653;SDS011;5375;51.250;6.776;2023-02-28T00:29:57;2.87;;;1.57;;
10653;SDS011;5375;51.250;6.776;2023-02-28T00:32:23;3.00;;;1.70;;
10653;SDS011;5375;51.250;6.776;2023-02-28T00:34:49;2.63;;;1.97;;
10653;SDS011;5375;51.250;6.776;2023-02-28T00:37:15;2.30;;;1.50;;
10653;SDS011;5375;51.250;6.776;2023-02-28T00:39:40;4.50;;;1.90;;
10653;SDS011;5375;51.250;6.776;2023-02-28T00:42:06;4.00;;;1.80;;
10653;SDS011;5375;51.250;6.776;2023-02-28T00:44:32;4.20;;;1.70;;
10653;SDS011;5375;51.250;6.776;2023-02-28T00:46:59;3.30;;;1.87;;
10653;SDS011;5375;51.250;6.776;2023-02-28T00:49:25;2.57;;;1.70;;
10653;SDS011;5375;51.250;6.776;2023-02-28T00:51:52;2.03;;;1.60;;
10653;SDS011;5375;51.250;6.776;2023-02-28T00:54:19;3.20;;;1.83;;
10653;SDS011;5375;51.250;6.776;2023-02-28T00:56:45;3.03;;;1.60;;
10653;SDS011;5375;51.250;6.776;2023-02-28T00:59:14;3.47;;;1.60;;
10653;SDS011;5375;51.250;6.776;2023-02-28T01:01:41;3.33;;;2.00;;
10653;SDS011;5375;51.250;6.776;2023-02-28T01:04:07;3.20;;;1.50;;
10653;SDS011;5375;51.250;6.776;2023-02-28T01:06:33;2.27;;;1.50;;
10653;SDS011;5375;51.250;6.776;2023-02-28T01:08:59;2.40;;;1.70;;
10653;SDS011;5375;51.250;6.776;2023-02-28T01:11:25;2.93;;;1.80;;
10653;SDS011;5375;51.250;6.776;2023-02-28T01:13:51;2.50;;;1.73;;
10653;SDS011;5375;51.250;6.776;2023-02-28T01:16:17;2.97;;;1.90;;
10653;SDS011;5375;51.250;6.776;2023-02-28T01:18:43;2.03;;;1.63;;
10653;SDS011;5375;51.250;6.776;2023-02-28T01:21:10;3.07;;;1.60;;
10653;SDS011;5375;51.250;6.776;2023-02-28T01:23:38;3.13;;;1.60;;
10653;SDS011;5375;51.250;6.776;2023-02-28T01:26:05;2.67;;;1.60;;
10653;SDS011;5375;51.250;6.776;2023-02-28T01:28:33;3.33;;;1.77;;
10653;SDS011;5375;51.250;6.776;2023-02-28T01:30:59;2.93;;;1.93;;
10653;SDS011;5375;51.250;6.776;2023-02-28T01:33:25;2.77;;;1.67;;
10653;SDS011;5375;51.250;6.776;2023-02-28T01:35:57;2.70;;;1.70;;
10653;SDS011;5375;51.250;6.776;2023-02-28T01:38:35;2.73;;;1.70;;
10653;SDS011;5375;51.250;6.776;2023-02-28T01:41:01;2.27;;;1.60;;
10653;SDS011;5375;51.250;6.776;2023-02-28T01:43:28;3.20;;;1.70;;
10653;SDS011;5375;51.250;6.776;2023-02-28T01:46:14;2.47;;;1.60;;
10653;SDS011;5375;51.250;6.776;2023-02-28T01:48:42;2.63;;;1.53;;
10653;SDS011;5375;51.250;6.776;2023-02-28T01:51:17;2.67;;;1.70;;
10653;SDS011;5375;51.250;6.776;2023-02-28T01:53:51;2.87;;;1.93;;
10653;SDS011;5375;51.250;6.776;2023-02-28T01:56:23;1.60;;;1.40;;
10653;SDS011;5375;51.250;6.776;2023-02-28T01:58:52;2.93;;;1.70;;
10653;SDS011;5375;51.250;6.776;2023-02-28T02:01:20;4.40;;;1.63;;
10653;SDS011;5375;51.250;6.776;2023-02-28T02:03:48;2.33;;;1.27;;
10653;SDS011;5375;51.250;6.776;2023-02-28T02:06:30;3.57;;;1.87;;
10653;SDS011;5375;51.250;6.776;2023-02-28T02:09:02;2.33;;;1.53;;
10653;SDS011;5375;51.250;6.776;2023-02-28T02:11:28;2.03;;;1.40;;
10653;SDS011;5375;51.250;6.776;2023-02-28T02:14:09;3.60;;;1.77;;
10653;SDS011;5375;51.250;6.776;2023-02-28T02:16:55;4.63;;;1.90;;
10653;SDS011;5375;51.250;6.776;2023-02-28T02:25:45;3.07;;;1.43;;
10653;SDS011;5375;51.250;6.776;2023-02-28T02:28:35;2.07;;;1.40;;
10653;SDS011;5375;51.250;6.776;2023-02-28T02:37:15;4.13;;;1.80;;
10653;SDS011;5375;51.250;6.776;2023-02-28T02:39:50;5.30;;;1.63;;
10653;SDS011;5375;51.250;6.776;2023-02-28T02:42:41;2.33;;;1.67;;
10653;SDS011;5375;51.250;6.776;2023-02-28T02:45:25;2.97;;;1.77;;
10653;SDS011;5375;51.250;6.776;2023-02-28T02:48:00;5.63;;;1.70;;
10653;SDS011;5375;51.250;6.776;2023-02-28T02:50:36;2.13;;;1.60;;
10653;SDS011;5375;51.250;6.776;2023-02-28T02:53:11;3.00;;;1.80;;
10653;SDS011;5375;51.250;6.776;2023-02-28T02:55:39;2.60;;;1.60;;
10653;SDS011;5375;51.250;6.776;2023-02-28T02:58:10;2.90;;;1.67;;
10653;SDS011;5375;51.250;6.776;2023-02-28T03:00:41;3.77;;;1.80;;
10653;SDS011;5375;51.250;6.776;2023-02-28T03:03:11;2.73;;;1.60;;
10653;SDS011;5375;51.250;6.776;2023-02-28T03:08:09;2.00;;;1.77;;
10653;SDS011;5375;51.250;6.776;2023-02-28T03:10:37;3.43;;;2.00;;
10653;SDS011;5375;51.250;6.776;2023-02-28T03:18:36;3.20;;;1.77;;
10653;SDS011;5375;51.250;6.776;2023-02-28T03:21:21;3.07;;;1.83;;
10653;SDS011;5375;51.250;6.776;2023-02-28T03:24:07;3.07;;;1.60;;
10653;SDS011;5375;51.250;6.776;2023-02-28T03:26:43;4.50;;;1.80;;
10653;SDS011;5375;51.250;6.776;2023-02-28T03:31:45;3.33;;;1.80;;
10653;SDS011;5375;51.250;6.776;2023-02-28T03:34:19;2.73;;;1.63;;
10653;SDS011;5375;51.250;6.776;2023-02-28T03:37:02;2.53;;;1.70;;
10653;SDS011;5375;51.250;6.776;2023-02-28T03:39:37;3.63;;;1.90;;
10653;SDS011;5375;51.250;6.776;2023-02-28T03:42:11;3.63;;;1.70;;
10653;SDS011;5375;51.250;6.776;2023-02-28T03:44:45;6.57;;;2.00;;
10653;SDS011;5375;51.250;6.776;2023-02-28T03:49:50;7.77;;;2.10;;
10653;SDS011;5375;51.250;6.776;2023-02-28T03:52:22;9.17;;;2.23;;
10653;SDS011;5375;51.250;6.776;2023-02-28T03:54:54;2.53;;;1.80;;
10653;SDS011;5375;51.250;6.776;2023-02-28T04:00:09;4.33;;;1.67;;
10653;SDS011;5375;51.250;6.776;2023-02-28T04:02:39;2.40;;;1.53;;
10653;SDS011;5375;51.250;6.776;2023-02-28T04:05:05;2.57;;;1.53;;
10653;SDS011;5375;51.250;6.776;2023-02-28T04:07:32;2.73;;;1.63;;
10653;SDS011;5375;51.250;6.776;2023-02-28T04:09:58;4.20;;;1.60;;
10653;SDS011;5375;51.250;6.776;2023-02-28T04:12:24;2.50;;;1.40;;
10653;SDS011;5375;51.250;6.776;2023-02-28T04:14:50;2.67;;;1.77;;
10653;SDS011;5375;51.250;6.776;2023-02-28T04:17:16;2.43;;;1.77;;
10653;SDS011;5375;51.250;6.776;2023-02-28T04:19:42;3.47;;;1.80;;
10653;SDS011;5375;51.250;6.776;2023-02-28T04:22:08;2.37;;;1.73;;
10653;SDS011;5375;51.250;6.776;2023-02-28T04:24:34;5.40;;;1.90;;
10653;SDS011;5375;51.250;6.776;2023-02-28T04:27:00;1.80;;;1.40;;
10653;SDS011;5375;51.250;6.776;2023-02-28T04:29:30;3.23;;;1.57;;
10653;SDS011;5375;51.250;6.776;2023-02-28T04:31:57;3.90;;;1.73;;
10653;SDS011;5375;51.250;6.776;2023-02-28T04:34:29;2.50;;;1.50;;
10653;SDS011;5375;51.250;6.776;2023-02-28T04:36:56;4.20;;;1.60;;
10653;SDS011;5375;51.250;6.776;2023-02-28T04:39:23;2.87;;;1.57;;
10653;SDS011;5375;51.250;6.776;2023-02-28T04:41:49;2.70;;;1.57;;
10653;SDS011;5375;51.250;6.776;2023-02-28T04:44:15;2.67;;;1.60;;
10653;SDS011;5375;51.250;6.776;2023-02-28T04:46:41;4.87;;;1.70;;
10653;SDS011;5375;51.250;6.776;2023-02-28T04:49:08;3.80;;;1.60;;
10653;SDS011;5375;51.250;6.776;2023-02-28T04:51:36;2.70;;;1.73;;
10653;SDS011;5375;51.250;6.776;2023-02-28T04:54:02;3.13;;;1.47;;
10653;SDS011;5375;51.250;6.776;2023-02-28T04:56:28;2.43;;;1.60;;
10653;SDS011;5375;51.250;6.776;2023-02-28T04:58:53;2.83;;;1.63;;
10653;SDS011;5375;51.250;6.776;2023-02-28T05:01:30;1.90;;;1.40;;
10653;SDS011;5375;51.250;6.776;2023-02-28T05:03:58;2.03;;;1.50;;
10653;SDS011;5375;51.250;6.776;2023-02-28T05:06:25;2.97;;;1.60;;
10653;SDS011;5375;51.250;6.776;2023-02-28T05:08:53;1.90;;;1.47;;
10653;SDS011;5375;51.250;6.776;2023-02-28T05:11:20;2.60;;;1.50;;
10653;SDS011;5375;51.250;6.776;2023-02-28T05:13:50;3.80;;;1.73;;
10653;SDS011;5375;51.250;6.776;2023-02-28T05:16:16;5.60;;;2.13;;
10653;SDS011;5375;51.250;6.776;2023-02-28T05:18:43;2.67;;;1.50;;
10653;SDS011;5375;51.250;6.776;2023-02-28T05:21:18;2.53;;;1.50;;
10653;SDS011;5375;51.250;6.776;2023-02-28T05:23:52;3.20;;;1.50;;
10653;SDS011;5375;51.250;6.776;2023-02-28T05:26:19;3.40;;;1.53;;
10653;SDS011;5375;51.250;6.776;2023-02-28T05:28:44;5.20;;;1.60;;
10653;SDS011;5375;51.250;6.776;2023-02-28T05:31:10;2.50;;;1.50;;
10653;SDS011;5375;51.250;6.776;2023-02-28T05:33:36;3.43;;;2.20;;
10653;SDS011;5375;51.250;6.776;2023-02-28T05:36:02;5.80;;;1.70;;
10653;SDS011;5375;51.250;6.776;2023-02-28T05:38:28;3.53;;;1.70;;
10653;SDS011;5375;51.250;6.776;2023-02-28T05:40:54;4.97;;;1.77;;
10653;SDS011;5375;51.250;6.776;2023-02-28T05:43:21;3.03;;;1.80;;
10653;SDS011;5375;51.250;6.776;2023-02-28T05:45:47;3.17;;;1.77;;
10653;SDS011;5375;51.250;6.776;2023-02-28T05:48:13;6.40;;;2.07;;
10653;SDS011;5375;51.250;6.776;2023-02-28T05:50:38;6.17;;;1.30;;
10653;SDS011;5375;51.250;6.776;2023-02-28T05:53:04;4.20;;;1.50;;
10653;SDS011;5375;51.250;6.776;2023-02-28T05:55:30;2.53;;;1.40;;
10653;SDS011;5375;51.250;6.776;2023-02-28T05:57:55;3.07;;;1.40;;
10653;SDS011;5375;51.250;6.776;2023-02-28T06:00:21;3.17;;;1.60;;
10653;SDS011;5375;51.250;6.776;2023-02-28T06:02:47;2.00;;;1.40;;
10653;SDS011;5375;51.250;6.776;2023-02-28T06:05:15;3.00;;;1.60;;
10653;SDS011;5375;51.250;6.776;2023-02-28T06:07:42;3.50;;;1.90;;
10653;SDS011;5375;51.250;6.776;2023-02-28T06:10:12;2.30;;;1.47;;
10653;SDS011;5375;51.250;6.776;2023-02-28T06:12:39;2.83;;;1.50;;
10653;SDS011;5375;51.250;6.776;2023-02-28T06:15:06;2.17;;;1.50;;
10653;SDS011;5375;51.250;6.776;2023-02-28T06:17:36;2.47;;;1.60;;
10653;SDS011;5375;51.250;6.776;2023-02-28T06:20:02;3.00;;;1.30;;
10653;SDS011;5375;51.250;6.776;2023-02-28T06:22:27;3.30;;;1.43;;
10653;SDS011;5375;51.250;6.776;2023-02-28T06:24:53;3.23;;;1.40;;
10653;SDS011;5375;51.250;6.776;2023-02-28T06:27:20;3.30;;;1.43;;
10653;SDS011;5375;51.250;6.776;2023-02-28T06:29:45;3.20;;;1.50;;
10653;SDS011;5375;51.250;6.776;2023-02-28T06:32:11;2.50;;;1.60;;
10653;SDS011;5375;51.250;6.776;2023-02-28T06:34:37;3.97;;;1.70;;
10653;SDS011;5375;51.250;6.776;2023-02-28T06:37:02;4.33;;;1.60;;
10653;SDS011;5375;51.250;6.776;2023-02-28T06:39:30;3.30;;;1.70;;
10653;SDS011;5375;51.250;6.776;2023-02-28T06:41:56;4.00;;;1.57;;
10653;SDS011;5375;51.250;6.776;2023-02-28T06:44:22;3.07;;;1.33;;
10653;SDS011;5375;51.250;6.776;2023-02-28T06:46:49;3.03;;;1.90;;
10653;SDS011;5375;51.250;6.776;2023-02-28T06:49:15;2.97;;;1.50;;
10653;SDS011;5375;51.250;6.776;2023-02-28T06:51:42;5.90;;;1.83;;
10653;SDS011;5375;51.250;6.776;2023-02-28T06:54:12;7.17;;;1.73;;
10653;SDS011;5375;51.250;6.776;2023-02-28T06:56:38;3.23;;;1.83;;
10653;SDS011;5375;51.250;6.776;2023-02-28T06:59:04;4.57;;;1.67;;
10653;SDS011;5375;51.250;6.776;2023-02-28T07:01:30;10.00;;;1.63;;
10653;SDS011;5375;51.250;6.776;2023-02-28T07:03:57;3.73;;;1.60;;
10653;SDS011;5375;51.250;6.776;2023-02-28T07:06:25;7.83;;;1.80;;
10653;SDS011;5375;51.250;6.776;2023-02-28T07:08:51;1.93;;;1.40;;
10653;SDS011;5375;51.250;6.776;2023-02-28T07:11:20;7.93;;;1.77;;
10653;SDS011;5375;51.250;6.776;2023-02-28T07:13:47;2.33;;;1.50;;
10653;SDS011;5375;51.250;6.776;2023-02-28T07:16:14;4.00;;;1.60;;
10653;SDS011;5375;51.250;6.776;2023-02-28T07:18:39;2.60;;;1.40;;
10653;SDS011;5375;51.250;6.776;2023-02-28T07:21:06;2.47;;;1.80;;
10653;SDS011;5375;51.250;6.776;2023-02-28T07:23:34;3.30;;;1.53;;
10653;SDS011;5375;51.250;6.776;2023-02-28T07:25:59;2.73;;;1.67;;
10653;SDS011;5375;51.250;6.776;2023-02-28T07:28:25;2.67;;;1.50;;
10653;SDS011;5375;51.250;6.776;2023-02-28T07:30:51;6.00;;;1.60;;
10653;SDS011;5375;51.250;6.776;2023-02-28T07:33:16;3.00;;;1.50;;
10653;SDS011;5375;51.250;6.776;2023-02-28T07:35:42;2.67;;;1.30;;
10653;SDS011;5375;51.250;6.776;2023-02-28T07:38:08;2.90;;;1.60;;
10653;SDS011;5375;51.250;6.776;2023-02-28T07:40:34;2.93;;;1.53;;
10653;SDS011;5375;51.250;6.776;2023-02-28T07:43:01;2.80;;;1.60;;
10653;SDS011;5375;51.250;6.776;2023-02-28T07:45:27;2.63;;;1.50;;
10653;SDS011;5375;51.250;6.776;2023-02-28T07:47:59;4.73;;;1.73;;
10653;SDS011;5375;51.250;6.776;2023-02-28T07:50:25;3.53;;;1.37;;
10653;SDS011;5375;51.250;6.776;2023-02-28T07:52:52;8.10;;;1.30;;
10653;SDS011;5375;51.250;6.776;2023-02-28T07:55:18;2.30;;;1.30;;
10653;SDS011;5375;51.250;6.776;2023-02-28T07:57:43;2.20;;;1.40;;
10653;SDS011;5375;51.250;6.776;2023-02-28T08:00:10;2.10;;;1.30;;
10653;SDS011;5375;51.250;6.776;2023-02-28T08:02:37;6.27;;;1.37;;
10653;SDS011;5375;51.250;6.776;2023-02-28T08:05:03;3.47;;;1.40;;
10653;SDS011;5375;51.250;6.776;2023-02-28T08:07:29;1.93;;;1.23;;
10653;SDS011;5375;51.250;6.776;2023-02-28T08:09:55;1.90;;;1.20;;
10653;SDS011;5375;51.250;6.776;2023-02-28T08:12:20;2.00;;;1.30;;
10653;SDS011;5375;51.250;6.776;2023-02-28T08:14:46;2.33;;;1.50;;
10653;SDS011;5375;51.250;6.776;2023-02-28T08:17:12;3.70;;;1.50;;
10653;SDS011;5375;51.250;6.776;2023-02-28T08:19:38;3.00;;;1.20;;
10653;SDS011;5375;51.250;6.776;2023-02-28T08:22:03;1.77;;;1.13;;
10653;SDS011;5375;51.250;6.776;2023-02-28T08:24:30;2.13;;;1.30;;
10653;SDS011;5375;51.250;6.776;2023-02-28T08:26:56;2.47;;;1.30;;
10653;SDS011;5375;51.250;6.776;2023-02-28T08:29:21;3.53;;;1.40;;
10653;SDS011;5375;51.250;6.776;2023-02-28T08:31:47;2.40;;;1.10;;
10653;SDS011;5375;51.250;6.776;2023-02-28T08:34:14;2.40;;;1.60;;
10653;SDS011;5375;51.250;6.776;2023-02-28T08:36:40;2.37;;;1.50;;
10653;SDS011;5375;51.250;6.776;2023-02-28T08:39:07;1.73;;;1.20;;
10653;SDS011;5375;51.250;6.776;2023-02-28T08:41:33;2.00;;;1.10;;
10653;SDS011;5375;51.250;6.776;2023-02-28T08:43:59;2.27;;;1.07;;
10653;SDS011;5375;51.250;6.776;2023-02-28T08:46:25;2.43;;;1.20;;
10653;SDS011;5375;51.250;6.776;2023-02-28T08:48:51;1.47;;;0.83;;
10653;SDS011;5375;51.250;6.776;2023-02-28T08:51:18;1.80;;;1.10;;
10653;SDS011;5375;51.250;6.776;2023-02-28T08:53:51;2.80;;;1.30;;
10653;SDS011;5375;51.250;6.776;2023-02-28T08:56:17;3.20;;;1.27;;
10653;SDS011;5375;51.250;6.776;2023-02-28T08:58:43;1.63;;;0.97;;
10653;SDS011;5375;51.250;6.776;2023-02-28T09:01:12;2.13;;;1.13;;
10653;SDS011;5375;51.250;6.776;2023-02-28T09:03:40;1.97;;;1.20;;
10653;SDS011;5375;51.250;6.776;2023-02-28T09:06:06;1.70;;;1.20;;
10653;SDS011;5375;51.250;6.776;2023-02-28T09:08:33;1.57;;;1.20;;
10653;SDS011;5375;51.250;6.776;2023-02-28T09:10:59;2.60;;;1.10;;
10653;SDS011;5375;51.250;6.776;2023-02-28T09:13:25;2.03;;;0.93;;
10653;SDS011;5375;51.250;6.776;2023-02-28T09:15:52;1.43;;;1.00;;
10653;SDS011;5375;51.250;6.776;2023-02-28T09:18:17;1.63;;;1.13;;
10653;SDS011;5375;51.250;6.776;2023-02-28T09:20:43;2.23;;;1.20;;
10653;SDS011;5375;51.250;6.776;2023-02-28T09:23:10;1.27;;;0.93;;
10653;SDS011;5375;51.250;6.776;2023-02-28T09:25:37;2.50;;;1.17;;
10653;SDS011;5375;51.250;6.776;2023-02-28T09:28:09;1.53;;;1.10;;
10653;SDS011;5375;51.250;6.776;2023-02-28T09:30:36;1.63;;;1.10;;
10653;SDS011;5375;51.250;6.776;2023-02-28T09:33:01;1.97;;;1.10;;
10653;SDS011;5375;51.250;6.776;2023-02-28T09:35:27;2.20;;;1.23;;
10653;SDS011;5375;51.250;6.776;2023-02-28T09:37:53;2.17;;;1.17;;
10653;SDS011;5375;51.250;6.776;2023-02-28T09:40:19;2.07;;;1.10;;
10653;SDS011;5375;51.250;6.776;2023-02-28T09:42:49;2.67;;;0.90;;
10653;SDS011;5375;51.250;6.776;2023-02-28T09:47:49;1.77;;;1.07;;
10653;SDS011;5375;51.250;6.776;2023-02-28T09:52:54;2.30;;;1.10;;
10653;SDS011;5375;51.250;6.776;2023-02-28T09:57:58;2.73;;;1.10;;
10653;SDS011;5375;51.250;6.776;2023-02-28T10:03:19;1.67;;;1.10;;
10653;SDS011;5375;51.250;6.776;2023-02-28T10:11:10;1.77;;;0.90;;
10653;SDS011;5375;51.250;6.776;2023-02-28T10:13:48;1.40;;;0.87;;
10653;SDS011;5375;51.250;6.776;2023-02-28T10:18:57;1.33;;;1.00;;
10653;SDS011;5375;51.250;6.776;2023-02-28T10:21:31;1.27;;;0.97;;
10653;SDS011;5375;51.250;6.776;2023-02-28T10:24:11;1.47;;;1.10;;
10653;SDS011;5375;51.250;6.776;2023-02-28T10:26:40;2.43;;;1.10;;
10653;SDS011;5375;51.250;6.776;2023-02-28T10:29:10;1.10;;;1.00;;
10653;SDS011;5375;51.250;6.776;2023-02-28T10:31:36;0.83;;;0.70;;
10653;SDS011;5375;51.250;6.776;2023-02-28T10:34:02;7.43;;;1.00;;
10653;SDS011;5375;51.250;6.776;2023-02-28T10:36:29;1.83;;;1.03;;
10653;SDS011;5375;51.250;6.776;2023-02-28T10:38:54;1.30;;;0.90;;
10653;SDS011;5375;51.250;6.776;2023-02-28T10:41:30;1.10;;;1.00;;
10653;SDS011;5375;51.250;6.776;2023-02-28T10:44:15;1.00;;;0.70;;
10653;SDS011;5375;51.250;6.776;2023-02-28T10:46:45;2.10;;;0.90;;
10653;SDS011;5375;51.250;6.776;2023-02-28T10:49:15;1.00;;;0.80;;
10653;SDS011;5375;51.250;6.776;2023-02-28T10:51:45;1.27;;;0.80;;
10653;SDS011;5375;51.250;6.776;2023-02-28T10:54:24;1.07;;;0.87;;
10653;SDS011;5375;51.250;6.776;2023-02-28T10:57:32;1.20;;;0.80;;
10653;SDS011;5375;51.250;6.776;2023-02-28T10:59:51;1.63;;;0.77;;
10653;SDS011;5375;51.250;6.776;2023-02-28T11:02:34;1.13;;;1.00;;
10653;SDS011;5375;51.250;6.776;2023-02-28T11:05:02;1.00;;;0.87;;
10653;SDS011;5375;51.250;6.776;2023-02-28T11:07:50;1.43;;;0.90;;
10653;SDS011;5375;51.250;6.776;2023-02-28T11:10:19;1.33;;;0.80;;
10653;SDS011;5375;51.250;6.776;2023-02-28T11:12:48;1.50;;;0.87;;
10653;SDS011;5375;51.250;6.776;2023-02-28T11:17:52;1.90;;;0.87;;
10653;SDS011;5375;51.250;6.776;2023-02-28T11:20:26;1.13;;;0.80;;
10653;SDS011;5375;51.250;6.776;2023-02-28T11:22:55;1.07;;;0.80;;
10653;SDS011;5375;51.250;6.776;2023-02-28T11:25:33;1.57;;;0.73;;
10653;SDS011;5375;51.250;6.776;2023-02-28T11:28:06;7.40;;;0.80;;
10653;SDS011;5375;51.250;6.776;2023-02-28T11:33:30;1.60;;;1.07;;
10653;SDS011;5375;51.250;6.776;2023-02-28T11:35:58;1.70;;;0.70;;
10653;SDS011;5375;51.250;6.776;2023-02-28T11:38:30;1.13;;;0.87;;
10653;SDS011;5375;51.250;6.776;2023-02-28T11:41:03;1.03;;;0.70;;
10653;SDS011;5375;51.250;6.776;2023-02-28T11:47:11;1.10;;;0.80;;
10653;SDS011;5375;51.250;6.776;2023-02-28T11:49:42;0.90;;;0.80;;
10653;SDS011;5375;51.250;6.776;2023-02-28T11:55:02;0.83;;;0.63;;
10653;SDS011;5375;51.250;6.776;2023-02-28T11:57:47;1.77;;;0.70;;
10653;SDS011;5375;51.250;6.776;2023-02-28T12:06:13;1.10;;;0.80;;
10653;SDS011;5375;51.250;6.776;2023-02-28T12:09:00;1.37;;;0.80;;
10653;SDS011;5375;51.250;6.776;2023-02-28T12:11:53;0.90;;;0.63;;
10653;SDS011;5375;51.250;6.776;2023-02-28T12:22:55;1.23;;;0.70;;
10653;SDS011;5375;51.250;6.776;2023-02-28T12:28:06;1.23;;;0.80;;
10653;SDS011;5375;51.250;6.776;2023-02-28T12:30:38;1.20;;;0.70;;
10653;SDS011;5375;51.250;6.776;2023-02-28T12:33:28;1.10;;;0.80;;
10653;SDS011;5375;51.250;6.776;2023-02-28T12:35:59;0.80;;;0.70;;
10653;SDS011;5375;51.250;6.776;2023-02-28T12:39:32;0.97;;;0.63;;
10653;SDS011;5375;51.250;6.776;2023-02-28T12:41:40;0.93;;;0.80;;
10653;SDS011;5375;51.250;6.776;2023-02-28T12:44:32;0.73;;;0.60;;
10653;SDS011;5375;51.250;6.776;2023-02-28T12:47:03;0.93;;;0.70;;
10653;SDS011;5375;51.250;6.776;2023-02-28T12:49:36;1.80;;;0.87;;
10653;SDS011;5375;51.250;6.776;2023-02-28T12:52:06;3.97;;;0.93;;
10653;SDS011;5375;51.250;6.776;2023-02-28T12:54:38;8.07;;;1.10;;
10653;SDS011;5375;51.250;6.776;2023-02-28T12:57:13;2.63;;;0.93;;
10653;SDS011;5375;51.250;6.776;2023-02-28T13:00:00;1.27;;;0.60;;
10653;SDS011;5375;51.250;6.776;2023-02-28T13:02:38;1.30;;;0.80;;
10653;SDS011;5375;51.250;6.776;2023-02-28T13:08:19;0.93;;;0.80;;
10653;SDS011;5375;51.250;6.776;2023-02-28T13:10:48;1.20;;;0.70;;
10653;SDS011;5375;51.250;6.776;2023-02-28T13:13:20;0.80;;;0.70;;
10653;SDS011;5375;51.250;6.776;2023-02-28T13:15:58;2.00;;;0.87;;
10653;SDS011;5375;51.250;6.776;2023-02-28T13:21:01;1.67;;;0.83;;
10653;SDS011;5375;51.250;6.776;2023-02-28T13:24:13;0.90;;;0.70;;
10653;SDS011;5375;51.250;6.776;2023-02-28T13:34:31;1.40;;;0.67;;
10653;SDS011;5375;51.250;6.776;2023-02-28T13:39:53;0.97;;;0.60;;
10653;SDS011;5375;51.250;6.776;2023-02-28T13:42:36;0.90;;;0.80;;
10653;SDS011;5375;51.250;6.776;2023-02-28T13:45:29;1.73;;;0.77;;
10653;SDS011;5375;51.250;6.776;2023-02-28T13:48:02;0.90;;;0.70;;
10653;SDS011;5375;51.250;6.776;2023-02-28T13:59:05;0.83;;;0.70;;
10653;SDS011;5375;51.250;6.776;2023-02-28T14:01:53;1.23;;;0.80;;
10653;SDS011;5375;51.250;6.776;2023-02-28T14:04:55;0.90;;;0.70;;
10653;SDS011;5375;51.250;6.776;2023-02-28T14:07:31;0.87;;;0.70;;
10653;SDS011;5375;51.250;6.776;2023-02-28T14:10:04;0.90;;;0.77;;
10653;SDS011;5375;51.250;6.776;2023-02-28T14:15:40;1.20;;;0.70;;
10653;SDS011;5375;51.250;6.776;2023-02-28T14:23:44;1.43;;;0.77;;
10653;SDS011;5375;51.250;6.776;2023-02-28T14:29:35;2.30;;;0.90;;
10653;SDS011;5375;51.250;6.776;2023-02-28T14:35:40;8.20;;;1.70;;
10653;SDS011;5375;51.250;6.776;2023-02-28T14:38:23;10.90;;;2.10;;
10653;SDS011;5375;51.250;6.776;2023-02-28T14:40:55;10.03;;;2.70;;
10653;SDS011;5375;51.250;6.776;2023-02-28T14:43:27;7.07;;;1.97;;
10653;SDS011;5375;51.250;6.776;2023-02-28T14:45:57;8.63;;;2.23;;
10653;SDS011;5375;51.250;6.776;2023-02-28T14:48:25;9.37;;;2.43;;
10653;SDS011;5375;51.250;6.776;2023-02-28T14:50:55;14.53;;;2.30;;
10653;SDS011;5375;51.250;6.776;2023-02-28T14:53:29;10.80;;;2.20;;
10653;SDS011;5375;51.250;6.776;2023-02-28T14:56:00;10.47;;;2.17;;
10653;SDS011;5375;51.250;6.776;2023-02-28T14:58:26;9.13;;;2.67;;
10653;SDS011;5375;51.250;6.776;2023-02-28T15:00:54;8.47;;;2.43;;
10653;SDS011;5375;51.250;6.776;2023-02-28T15:06:00;12.93;;;2.63;;
10653;SDS011;5375;51.250;6.776;2023-02-28T15:08:30;8.50;;;2.37;;
10653;SDS011;5375;51.250;6.776;2023-02-28T15:11:13;6.30;;;2.20;;
10653;SDS011;5375;51.250;6.776;2023-02-28T15:13:45;7.77;;;2.13;;
10653;SDS011;5375;51.250;6.776;2023-02-28T15:16:20;8.43;;;2.30;;
10653;SDS011;5375;51.250;6.776;2023-02-28T15:18:54;6.00;;;1.83;;
10653;SDS011;5375;51.250;6.776;2023-02-28T15:21:23;13.20;;;3.07;;
10653;SDS011;5375;51.250;6.776;2023-02-28T15:26:29;7.93;;;2.80;;
10653;SDS011;5375;51.250;6.776;2023-02-28T15:29:04;8.83;;;2.20;;
10653;SDS011;5375;51.250;6.776;2023-02-28T15:31:41;7.47;;;1.90;;
10653;SDS011;5375;51.250;6.776;2023-02-28T15:34:20;6.93;;;2.00;;
10653;SDS011;5375;51.250;6.776;2023-02-28T15:36:47;7.50;;;2.57;;
10653;SDS011;5375;51.250;6.776;2023-02-28T15:39:32;5.87;;;1.83;;
10653;SDS011;5375;51.250;6.776;2023-02-28T15:42:18;6.13;;;2.10;;
10653;SDS011;5375;51.250;6.776;2023-02-28T15:44:45;7.50;;;2.10;;
10653;SDS011;5375;51.250;6.776;2023-02-28T15:47:20;10.23;;;2.40;;
10653;SDS011;5375;51.250;6.776;2023-02-28T15:49:49;9.23;;;2.00;;
10653;SDS011;5375;51.250;6.776;2023-02-28T15:52:26;4.87;;;2.13;;
10653;SDS011;5375;51.250;6.776;2023-02-28T15:54:56;6.80;;;2.13;;
10653;SDS011;5375;51.250;6.776;2023-02-28T15:57:26;8.90;;;2.70;;
10653;SDS011;5375;51.250;6.776;2023-02-28T15:59:55;5.37;;;1.80;;
10653;SDS011;5375;51.250;6.776;2023-02-28T16:02:33;5.93;;;2.20;;
10653;SDS011;5375;51.250;6.776;2023-02-28T16:05:23;9.70;;;1.93;;
10653;SDS011;5375;51.250;6.776;2023-02-28T16:07:53;5.97;;;1.77;;
10653;SDS011;5375;51.250;6.776;2023-02-28T16:10:20;5.57;;;1.77;;
10653;SDS011;5375;51.250;6.776;2023-02-28T16:12:50;6.17;;;1.77;;
10653;SDS011;5375;51.250;6.776;2023-02-28T16:15:22;6.20;;;1.80;;
10653;SDS011;5375;51.250;6.776;2023-02-28T16:17:53;6.03;;;1.70;;
10653;SDS011;5375;51.250;6.776;2023-02-28T16:20:23;7.77;;;1.90;;
10653;SDS011;5375;51.250;6.776;2023-02-28T16:22:51;6.03;;;2.00;;
10653;SDS011;5375;51.250;6.776;2023-02-28T16:25:18;7.10;;;2.00;;
10653;SDS011;5375;51.250;6.776;2023-02-28T16:27:49;5.10;;;1.90;;
10653;SDS011;5375;51.250;6.776;2023-02-28T16:30:22;4.07;;;1.97;;
10653;SDS011;5375;51.250;6.776;2023-02-28T16:32:49;6.17;;;1.83;;
10653;SDS011;5375;51.250;6.776;2023-02-28T16:35:16;3.93;;;1.80;;
10653;SDS011;5375;51.250;6.776;2023-02-28T16:37:43;6.60;;;1.67;;
10653;SDS011;5375;51.250;6.776;2023-02-28T16:40:16;5.73;;;1.53;;
10653;SDS011;5375;51.250;6.776;2023-02-28T16:42:45;4.00;;;1.23;;
10653;SDS011;5375;51.250;6.776;2023-02-28T16:45:17;6.43;;;1.77;;
10653;SDS011;5375;51.250;6.776;2023-02-28T16:47:45;4.50;;;1.47;;
10653;SDS011;5375;51.250;6.776;2023-02-28T16:50:18;3.43;;;1.43;;
10653;SDS011;5375;51.250;6.776;2023-02-28T16:52:46;5.67;;;1.43;;
10653;SDS011;5375;51.250;6.776;2023-02-28T16:55:13;4.00;;;1.57;;
10653;SDS011;5375;51.250;6.776;2023-02-28T16:57:39;3.43;;;1.50;;
10653;SDS011;5375;51.250;6.776;2023-02-28T17:00:06;5.73;;;1.50;;
10653;SDS011;5375;51.250;6.776;2023-02-28T17:02:36;3.23;;;1.50;;
10653;SDS011;5375;51.250;6.776;2023-02-28T17:05:01;5.87;;;1.47;;
10653;SDS011;5375;51.250;6.776;2023-02-28T17:07:27;4.80;;;1.67;;
10653;SDS011;5375;51.250;6.776;2023-02-28T17:09:53;3.20;;;1.50;;
10653;SDS011;5375;51.250;6.776;2023-02-28T17:12:19;2.97;;;1.33;;
10653;SDS011;5375;51.250;6.776;2023-02-28T17:14:44;8.17;;;1.60;;
10653;SDS011;5375;51.250;6.776;2023-02-28T17:17:20;5.43;;;1.50;;
10653;SDS011;5375;51.250;6.776;2023-02-28T17:19:46;9.83;;;2.30;;